Time;durP1;ratioP1;P1;durP2;ratioP2;P2;SDS_P1;SDS_P2;PMS_P1;PMS_P2;Temp;Humidity;BMP_temperature;BMP_pressure;BME280_temperature;BME280_humidity;BME280_pressure;Samples;Min_cycle;Max_cycle;Signal;HPM_P1;HPM_P2
2022/10/19 00:01:04;;;;;;;6.83;2.15;;;;;;;11.03;88.82;99914.17;1695683;82;21022;-60
2022/10/19 00:03:34;;;;;;;6.42;1.32;;;;;;;11.03;88.82;99908.95;1699527;83;21484;-61
2022/10/19 00:06:24;;;;;;;6.75;1.25;;;;;;;11.01;88.72;99902.94;1698651;83;21144;-61
2022/10/19 00:08:55;;;;;;;8.10;1.30;;;;;;;11.01;88.72;99902.94;1696250;83;21032;-60
2022/10/19 00:11:23;;;;;;;6.50;1.20;;;;;;;10.98;88.71;99893.50;1699877;83;21027;-61
2022/10/19 00:13:50;;;;;;;6.47;1.22;;;;;;;10.90;88.57;99883.41;1701592;84;20946;-60
2022/10/19 00:16:17;;;;;;;6.55;1.15;;;;;;;10.82;88.51;99888.13;1695670;82;20884;-61
2022/10/19 00:18:45;;;;;;;7.37;0.93;;;;;;;10.74;88.48;99901.98;1696581;83;21740;-61
2022/10/19 00:21:16;;;;;;;6.95;1.42;;;;;;;10.66;88.59;99900.18;1700706;82;20908;-61
2022/10/19 00:23:44;;;;;;;5.15;1.37;;;;;;;10.60;88.61;99905.68;1700176;83;20986;-60
2022/10/19 00:26:12;;;;;;;3.98;0.80;;;;;;;10.56;88.74;99906.72;1697114;82;20965;-60
2022/10/19 00:28:38;;;;;;;;;;;;;;;10.56;89.07;99904.10;1702603;82;20975;-60
2022/10/19 00:31:09;;;;;;;8.18;1.57;;;;;;;10.57;88.95;99909.73;1696580;82;22019;-61
2022/10/19 00:33:35;;;;;;;6.80;1.05;;;;;;;10.56;89.02;99904.98;1701490;82;20998;-61
2022/10/19 00:36:04;;;;;;;2.55;0.80;;;;;;;10.58;89.25;99907.50;1697731;82;20970;-61
2022/10/19 00:38:31;;;;;;;6.58;1.25;;;;;;;10.60;89.21;99901.77;1695798;82;20924;-61
2022/10/19 00:40:58;;;;;;;4.08;0.98;;;;;;;10.61;89.16;99899.53;1695921;84;21002;-61
2022/10/19 00:43:29;;;;;;;3.73;1.00;;;;;;;10.64;89.14;99904.61;1696928;84;21070;-61
2022/10/19 00:45:56;;;;;;;5.67;0.80;;;;;;;10.62;89.60;99899.48;1700905;84;21517;-61
2022/10/19 00:48:27;;;;;;;3.08;0.88;;;;;;;10.58;89.23;99902.28;1698245;82;20951;-60
2022/10/19 00:50:57;;;;;;;3.33;0.75;;;;;;;10.48;89.28;99899.24;1698476;84;20974;-61
2022/10/19 00:53:26;;;;;;;6.47;0.82;;;;;;;10.41;89.44;99900.41;1701993;84;21136;-60
2022/10/19 00:55:54;;;;;;;3.75;1.05;;;;;;;10.34;89.60;99897.70;1700098;83;21205;-61
2022/10/19 00:58:20;;;;;;;7.50;1.12;;;;;;;10.26;89.75;99899.29;1704325;83;20910;-60
2022/10/19 01:00:47;;;;;;;6.75;1.20;;;;;;;10.24;89.99;99901.11;1709443;83;21034;-61
2022/10/19 01:03:15;;;;;;;3.47;0.70;;;;;;;10.21;90.12;99902.09;1706994;83;20950;-61
2022/10/19 01:05:42;;;;;;;;;;;;;;;10.20;90.57;99904.78;1707678;82;22856;-61
2022/10/19 01:08:10;;;;;;;4.60;0.62;;;;;;;10.18;90.52;99903.98;1702430;83;20671;-61
2022/10/19 01:10:57;;;;;;;3.00;1.05;;;;;;;10.16;90.49;99911.03;1707629;82;21004;-61
2022/10/19 01:13:38;;;;;;;3.72;0.90;;;;;;;10.13;90.88;99897.65;1711521;82;24845;-61
2022/10/19 01:16:13;;;;;;;4.60;1.30;;;;;;;10.11;90.79;99910.37;1708730;82;20962;-61
2022/10/19 01:19:20;;;;;;;2.83;0.88;;;;;;;10.08;90.58;99914.83;1708068;82;21499;-61
2022/10/19 01:22:09;;;;;;;3.22;0.90;;;;;;;10.07;91.16;99900.06;1708602;82;21241;-60
2022/10/19 01:25:02;;;;;;;5.25;1.15;;;;;;;10.06;90.82;99902.75;1707975;83;20934;-60
2022/10/19 01:28:03;;;;;;;3.90;0.82;;;;;;;10.06;90.90;99903.59;1627794;86;21095;-61
2022/10/19 01:30:54;;;;;;;5.47;0.90;;;;;;;10.08;90.88;99903.09;1631952;86;21064;-61
2022/10/19 01:33:38;;;;;;;2.60;0.78;;;;;;;10.09;90.98;99902.63;1622854;86;21127;-61
2022/10/19 01:36:09;;;;;;;7.20;1.52;;;;;;;10.09;90.96;99898.25;1602561;88;21368;-61
2022/10/19 01:38:59;;;;;;;2.55;0.78;;;;;;;10.11;91.01;99897.33;1627409;86;20961;-62
2022/10/19 01:41:52;;;;;;;2.70;0.93;;;;;;;10.08;91.53;99900.48;1629766;86;20962;-61
2022/10/19 01:44:24;;;;;;;3.80;1.12;;;;;;;10.05;91.85;99898.43;1633014;86;21573;-61
2022/10/19 01:46:55;;;;;;;3.37;1.17;;;;;;;10.02;91.73;99899.87;1604781;86;21528;-61
2022/10/19 01:49:30;;;;;;;5.20;0.88;;;;;;;10.00;91.70;99901.25;1632408;86;20950;-61
2022/10/19 01:52:01;;;;;;;1.82;0.50;;;;;;;9.94;91.92;99898.91;1630196;86;21458;-61
2022/10/19 01:54:33;;;;;;;2.47;0.90;;;;;;;9.91;92.73;99901.61;1590418;88;21017;-61
2022/10/19 01:57:03;;;;;;;4.47;0.78;;;;;;;9.89;92.26;99903.46;1628868;86;21014;-61
2022/10/19 01:59:33;;;;;;;5.05;0.82;;;;;;;9.87;92.75;99900.06;1639236;86;21072;-61
2022/10/19 02:02:02;;;;;;;1.92;0.70;;;;;;;9.85;93.34;99901.41;1668372;84;21241;-60
2022/10/19 02:04:31;;;;;;;3.40;0.80;;;;;;;9.84;93.48;99905.41;1677923;83;21459;-61
2022/10/19 02:06:58;;;;;;;3.12;0.70;;;;;;;9.83;93.12;99907.60;1709971;83;20954;-61
2022/10/19 02:09:25;;;;;;;3.50;1.20;;;;;;;9.81;93.30;99912.05;1704733;82;21065;-61
2022/10/19 02:11:56;;;;;;;4.95;1.10;;;;;;;9.79;93.41;99906.05;1704847;82;20914;-61
2022/10/19 02:14:27;;;;;;;2.65;0.75;;;;;;;9.78;93.75;99913.48;1703382;82;21448;-61
2022/10/19 02:17:10;;;;;;;3.50;1.00;;;;;;;9.71;94.95;99912.88;1704661;82;21044;-61
2022/10/19 02:19:37;;;;;;;7.33;1.05;;;;;;;9.66;95.81;99914.81;1707136;82;21002;-60
2022/10/19 02:22:04;;;;;;;1.60;0.62;;;;;;;9.62;95.03;99918.47;1706684;83;20986;-61
2022/10/19 02:24:31;;;;;;;1.95;0.57;;;;;;;9.59;95.70;99919.44;1692274;82;21671;-60
2022/10/19 02:26:59;;;;;;;5.00;1.95;;;;;;;9.54;96.02;99910.94;1739531;81;21881;-60
2022/10/19 02:29:27;;;;;;;2.25;0.62;;;;;;;9.51;96.22;99912.83;1736725;81;21476;-60
2022/10/19 02:31:53;;;;;;;;;;;;;;;9.50;95.42;99911.99;1753240;80;20969;-60
2022/10/19 02:34:20;;;;;;;1.62;0.53;;;;;;;9.52;95.30;99912.78;1743833;80;20944;-60
2022/10/19 02:36:47;;;;;;;3.03;0.57;;;;;;;9.53;95.45;99915.77;1747652;80;21025;-60
2022/10/19 02:39:14;;;;;;;3.83;0.40;;;;;;;9.55;95.38;99907.45;1744490;81;21860;-61
2022/10/19 02:41:55;;;;;;;2.12;0.65;;;;;;;9.55;94.84;99907.45;1747773;81;21040;-60
2022/10/19 02:44:42;;;;;;;3.85;0.60;;;;;;;9.56;95.91;99907.83;1744227;80;20990;-60
2022/10/19 02:47:29;;;;;;;2.33;0.70;;;;;;;9.56;96.52;99913.05;1744010;80;20903;-61
2022/10/19 02:49:55;;;;;;;4.83;0.75;;;;;;;9.54;96.19;99910.94;1675636;84;21036;-60
2022/10/19 02:52:22;;;;;;;4.40;0.80;;;;;;;9.55;95.81;99917.87;1741309;81;21491;-60
2022/10/19 02:54:49;;;;;;;1.55;0.50;;;;;;;9.56;96.04;99919.56;1744464;81;20971;-61
2022/10/19 02:57:19;;;;;;;2.60;0.83;;;;;;;9.53;96.46;99907.95;1744911;81;20864;-60
2022/10/19 02:59:46;;;;;;;2.47;0.50;;;;;;;9.54;97.47;99913.55;1746950;81;20938;-61
2022/10/19 03:02:14;;;;;;;2.87;0.62;;;;;;;9.54;96.16;99917.92;1752430;81;20915;-61
2022/10/19 03:04:41;;;;;;;3.20;0.75;;;;;;;9.53;96.29;99920.98;1749731;81;21415;-60
2022/10/19 03:07:09;;;;;;;2.05;0.40;;;;;;;9.52;96.44;99923.21;1739668;81;20902;-60
2022/10/19 03:09:36;;;;;;;1.47;0.53;;;;;;;9.54;96.17;99920.06;1745388;81;21013;-61
2022/10/19 03:12:03;;;;;;;2.72;0.75;;;;;;;9.55;96.88;99930.91;1743938;81;20957;-60
2022/10/19 03:14:29;;;;;;;2.50;0.68;;;;;;;9.52;96.79;99932.33;1742851;81;21499;-61
2022/10/19 03:16:56;;;;;;;2.63;0.57;;;;;;;9.53;96.15;99934.02;1745978;80;21018;-60
2022/10/19 03:19:23;;;;;;;1.23;0.60;;;;;;;9.53;96.38;99930.11;1709141;82;20956;-60
2022/10/19 03:21:49;;;;;;;3.08;0.95;;;;;;;9.53;96.18;99935.33;1705110;82;21013;-61
2022/10/19 03:24:16;;;;;;;2.37;0.80;;;;;;;9.53;96.24;99935.33;1708179;82;20897;-61
2022/10/19 03:26:43;;;;;;;3.00;0.60;;;;;;;9.51;96.92;99939.73;1709277;82;21508;-61
2022/10/19 03:29:10;;;;;;;2.60;0.50;;;;;;;9.51;96.76;99939.73;1703789;82;21031;-60
2022/10/19 03:31:36;;;;;;;1.47;0.40;;;;;;;9.50;96.44;99936.75;1708809;82;20911;-61
2022/10/19 03:34:03;;;;;;;1.22;0.45;;;;;;;9.46;97.52;99942.98;1707775;82;21238;-60
2022/10/19 03:36:33;;;;;;;0.23;0.20;;;;;;;9.41;97.67;99942.33;1701253;82;21022;-60
2022/10/19 03:39:04;;;;;;;1.85;0.53;;;;;;;9.31;98.60;99950.94;1708465;82;21264;-59
2022/10/19 03:41:35;;;;;;;0.30;0.30;;;;;;;9.21;98.54;99959.16;1675465;84;21880;-60
2022/10/19 03:44:01;;;;;;;1.22;0.37;;;;;;;9.21;99.14;99959.16;1713581;82;21073;-60
2022/10/19 03:46:28;;;;;;;1.40;0.47;;;;;;;9.19;98.76;99973.56;1705992;82;21524;-60
2022/10/19 03:48:55;;;;;;;1.95;0.47;;;;;;;9.14;99.59;99962.00;1704190;83;21532;-60
2022/10/19 03:51:25;;;;;;;0.80;0.40;;;;;;;9.14;98.94;99962.00;1703079;82;20919;-61
2022/10/19 03:54:04;;;;;;;3.22;0.60;;;;;;;9.17;98.68;99960.58;1703160;82;21131;-61
2022/10/19 03:56:32;;;;;;;2.30;0.60;;;;;;;9.14;98.77;99960.70;1751048;81;20958;-61
2022/10/19 03:59:01;;;;;;;1.20;0.45;;;;;;;9.14;97.89;99963.31;1749670;80;20962;-61
2022/10/19 04:01:37;;;;;;;1.72;0.50;;;;;;;9.11;98.71;99979.05;1748298;81;21109;-60
2022/10/19 04:04:14;;;;;;;2.53;0.50;;;;;;;9.08;99.99;99990.05;1744875;80;21584;-61
2022/10/19 04:06:43;;;;;;;2.37;0.50;;;;;;;9.05;100.00;99984.50;1743840;81;22198;-61
2022/10/19 04:09:16;;;;;;;1.80;0.50;;;;;;;9.00;100.00;99995.53;1706224;83;21013;-60
2022/10/19 04:11:43;;;;;;;0.82;0.50;;;;;;;8.90;100.00;99990.25;1705797;82;21009;-61
2022/10/19 04:14:12;;;;;;;0.85;0.40;;;;;;;8.86;100.00;99990.82;1710009;82;22032;-60
2022/10/19 04:16:38;;;;;;;1.47;0.30;;;;;;;8.80;100.00;99995.41;1701990;82;21020;-60
2022/10/19 04:19:05;;;;;;;2.27;0.40;;;;;;;8.77;100.00;99991.16;1677771;83;22038;-61
2022/10/19 04:21:36;;;;;;;1.67;0.45;;;;;;;8.76;100.00;100004.21;1682672;83;20888;-60
2022/10/19 04:24:12;;;;;;;2.45;0.72;;;;;;;8.74;100.00;99999.92;1745291;81;20930;-60
2022/10/19 04:26:43;;;;;;;1.62;0.50;;;;;;;8.76;100.00;100006.81;1750106;81;20993;-61
2022/10/19 04:29:10;;;;;;;1.17;0.37;;;;;;;8.76;100.00;99999.01;1747591;81;20903;-60
2022/10/19 04:31:39;;;;;;;1.62;0.53;;;;;;;8.73;100.00;100004.71;1740924;81;21028;-60
2022/10/19 04:34:06;;;;;;;2.35;0.80;;;;;;;8.71;100.00;100016.08;1742990;81;20918;-61
2022/10/19 04:36:34;;;;;;;1.32;0.53;;;;;;;8.73;100.00;100015.58;1747407;81;20871;-60
2022/10/19 04:39:01;;;;;;;2.33;0.60;;;;;;;8.73;100.00;100021.63;1740833;81;20946;-61
2022/10/19 04:41:30;;;;;;;5.50;0.93;;;;;;;8.73;100.00;100020.79;1749351;80;20923;-61
2022/10/19 04:44:00;;;;;;;2.62;0.60;;;;;;;8.73;100.00;100029.91;1754175;80;21874;-60
2022/10/19 04:46:28;;;;;;;1.37;0.45;;;;;;;8.71;100.00;100031.27;1753028;80;20926;-60
2022/10/19 04:48:56;;;;;;;1.47;0.75;;;;;;;8.69;100.00;100027.86;1747728;80;21546;-61
2022/10/19 04:51:23;;;;;;;2.00;0.50;;;;;;;8.70;100.00;100021.74;1746587;80;20965;-61
2022/10/19 04:53:50;;;;;;;3.02;1.00;;;;;;;8.70;100.00;100032.16;1745203;80;20959;-62
2022/10/19 04:56:21;;;;;;;1.07;0.40;;;;;;;8.70;100.00;100028.70;1731321;80;21070;-60
2022/10/19 04:58:48;;;;;;;1.15;0.50;;;;;;;8.69;99.93;100026.56;1749202;80;20867;-60
2022/10/19 05:01:18;;;;;;;5.75;1.60;;;;;;;8.70;100.00;100030.85;1752210;80;28240;-61
2022/10/19 05:03:45;;;;;;;1.92;0.40;;;;;;;8.66;100.00;100029.28;1707073;83;21538;-61
2022/10/19 05:06:13;;;;;;;3.05;0.53;;;;;;;8.63;100.00;100041.09;1672847;84;21030;-61
2022/10/19 05:08:41;;;;;;;2.42;0.57;;;;;;;8.62;100.00;100027.66;1710274;82;21083;-61
2022/10/19 05:11:12;;;;;;;2.25;0.60;;;;;;;8.64;99.89;100028.92;1694920;82;21691;-60
2022/10/19 05:13:40;;;;;;;1.92;0.40;;;;;;;8.61;99.88;100024.67;1705782;83;21015;-63
2022/10/19 05:16:11;;;;;;;1.25;0.37;;;;;;;8.62;99.70;100030.27;1720548;82;20915;-61
2022/10/19 05:18:38;;;;;;;4.65;0.70;;;;;;;8.58;100.00;100028.69;1751608;81;20991;-61
2022/10/19 05:21:08;;;;;;;2.02;0.57;;;;;;;8.56;99.69;100030.94;1748748;81;21057;-61
2022/10/19 05:23:35;;;;;;;1.10;0.47;;;;;;;8.53;99.82;100031.89;1714897;82;20938;-61
2022/10/19 05:26:09;;;;;;;4.37;0.57;;;;;;;8.51;99.88;100036.29;1696291;83;20991;-61
2022/10/19 05:28:36;;;;;;;2.22;0.50;;;;;;;8.50;99.65;100042.41;1664850;84;21580;-61
2022/10/19 05:31:14;;;;;;;1.37;0.60;;;;;;;8.50;99.61;100039.80;1713642;81;20990;-62
2022/10/19 05:33:41;;;;;;;;;;;;;;;8.50;99.57;100048.91;1719478;82;21059;-61
2022/10/19 05:36:33;;;;;;;1.98;0.57;;;;;;;8.48;99.54;100052.01;1711855;83;20085;-60
2022/10/19 05:39:04;;;;;;;4.87;1.10;;;;;;;8.46;99.49;100056.44;1711728;82;20957;-61
2022/10/19 05:41:30;;;;;;;3.45;0.95;;;;;;;8.44;99.42;100056.93;1710450;83;21113;-60
2022/10/19 05:44:00;;;;;;;2.25;0.50;;;;;;;8.42;99.64;100053.06;1707125;83;21533;-61
2022/10/19 05:46:28;;;;;;;2.87;0.68;;;;;;;8.41;99.23;100068.74;1702307;82;21203;-62
2022/10/19 05:48:56;;;;;;;1.90;0.80;;;;;;;8.40;99.42;100070.92;1704464;82;20942;-61
2022/10/19 05:51:25;;;;;;;1.57;0.62;;;;;;;8.39;99.62;100086.15;1711301;82;21488;-62
2022/10/19 05:53:54;;;;;;;1.92;0.50;;;;;;;8.46;99.37;100085.91;1713071;82;20981;-61
2022/10/19 05:56:25;;;;;;;2.55;0.70;;;;;;;8.36;99.63;100094.02;1708556;82;21139;-61
2022/10/19 05:58:54;;;;;;;3.12;0.88;;;;;;;8.35;99.58;100092.33;1706096;82;21052;-61
2022/10/19 06:01:21;;;;;;;3.05;0.88;;;;;;;8.37;99.59;100098.31;1703498;83;20949;-62
2022/10/19 06:03:51;;;;;;;2.93;0.90;;;;;;;8.36;99.56;100102.67;1706317;83;20939;-61
2022/10/19 06:06:19;;;;;;;4.50;1.05;;;;;;;8.42;99.56;100101.20;1700428;83;20938;-61
2022/10/19 06:08:47;;;;;;;2.17;0.90;;;;;;;8.54;99.51;100103.00;1674249;82;21015;-61
2022/10/19 06:11:25;;;;;;;1.75;1.30;;;;;;;8.68;99.41;100095.16;1698312;82;20944;-61
2022/10/19 06:13:56;;;;;;;2.22;0.82;;;;;;;8.74;98.99;100093.65;1693987;84;37775;-62
2022/10/19 06:16:26;;;;;;;3.45;0.88;;;;;;;8.73;98.70;100113.21;1697826;83;20950;-61
2022/10/19 06:18:54;;;;;;;2.45;0.90;;;;;;;8.87;99.12;100116.66;1701206;82;20978;-61
2022/10/19 06:21:24;;;;;;;2.60;1.27;;;;;;;9.19;98.78;100123.38;1697704;82;21533;-62
2022/10/19 06:23:53;;;;;;;1.65;0.90;;;;;;;9.22;98.26;100119.81;1699005;82;21114;-61
2022/10/19 06:26:20;;;;;;;3.92;1.05;;;;;;;9.18;97.83;100129.47;1696432;84;20985;-62
2022/10/19 06:28:48;;;;;;;3.87;1.12;;;;;;;9.07;97.95;100129.84;1697070;83;21505;-62
2022/10/19 06:31:15;;;;;;;4.15;0.78;;;;;;;9.04;98.19;100145.57;1698011;84;21495;-62
2022/10/19 06:33:44;;;;;;;4.15;0.95;;;;;;;8.88;97.95;100141.81;1702946;82;20959;-63
2022/10/19 06:36:21;;;;;;;2.83;0.90;;;;;;;8.72;98.14;100146.67;1697022;83;21063;-63
2022/10/19 06:38:50;;;;;;;3.75;1.50;;;;;;;8.63;98.47;100147.82;1702075;82;21077;-63
2022/10/19 06:41:17;;;;;;;3.35;1.00;;;;;;;8.58;98.37;100157.52;1696556;84;28627;-63
2022/10/19 06:43:49;;;;;;;4.62;0.80;;;;;;;8.51;98.30;100168.59;1697260;82;20911;-61
2022/10/19 06:46:19;;;;;;;6.67;0.95;;;;;;;8.42;98.26;100175.36;1698651;83;20986;-62
2022/10/19 06:48:58;;;;;;;2.25;0.70;;;;;;;8.36;98.21;100175.98;1698260;83;21089;-62
2022/10/19 06:51:28;;;;;;;2.00;0.70;;;;;;;8.38;98.40;100182.84;1697892;84;21017;-63
2022/10/19 06:53:55;;;;;;;1.67;0.78;;;;;;;8.42;98.49;100184.47;1695729;84;20978;-62
2022/10/19 06:56:23;;;;;;;3.30;1.00;;;;;;;8.38;98.20;100191.11;1700316;82;21124;-62
2022/10/19 06:58:49;;;;;;;1.95;0.82;;;;;;;8.37;98.23;100191.98;1698825;83;20942;-63
2022/10/19 07:01:16;;;;;;;2.87;0.95;;;;;;;8.40;98.27;100189.32;1700645;82;21183;-62
2022/10/19 07:03:43;;;;;;;2.17;0.70;;;;;;;8.37;98.05;100199.79;1695079;82;20987;-62
2022/10/19 07:06:12;;;;;;;1.63;0.60;;;;;;;8.42;98.26;100204.44;1698480;84;21461;-61
2022/10/19 07:08:41;;;;;;;3.52;0.78;;;;;;;8.58;98.48;100200.92;1698741;84;21006;-62
2022/10/19 07:11:12;;;;;;;1.47;0.75;;;;;;;8.81;98.79;100210.60;1695777;83;21064;-61
2022/10/19 07:13:39;;;;;;;2.20;0.60;;;;;;;9.03;98.57;100206.39;1701208;82;21476;-62
2022/10/19 07:16:10;;;;;;;1.73;0.63;;;;;;;9.16;97.78;100205.09;1701214;84;20922;-62
2022/10/19 07:18:39;;;;;;;2.22;1.10;;;;;;;9.10;96.97;100207.03;1696940;84;21030;-62
2022/10/19 07:21:09;;;;;;;2.00;0.65;;;;;;;8.97;96.94;100217.02;1698974;84;21117;-63
2022/10/19 07:23:38;;;;;;;1.60;0.70;;;;;;;8.96;96.83;100210.09;1696189;82;20977;-62
2022/10/19 07:26:10;;;;;;;3.60;1.37;;;;;;;9.02;97.51;100216.42;1696285;83;21861;-61
2022/10/19 07:28:40;;;;;;;3.60;0.80;;;;;;;9.29;98.29;100222.91;1699865;82;20986;-62
2022/10/19 07:31:11;;;;;;;4.08;1.30;;;;;;;9.62;98.30;100233.47;1676516;84;21522;-62
2022/10/19 07:33:38;;;;;;;1.20;0.62;;;;;;;9.81;96.85;100231.52;1695268;83;20915;-62
2022/10/19 07:36:07;;;;;;;;;;;;;;;9.62;94.50;100255.62;1701331;83;21644;-61
2022/10/19 07:38:37;;;;;;;6.42;0.80;;;;;;;8.98;91.97;100254.33;1705232;82;20571;-61
2022/10/19 07:41:09;;;;;;;0.82;0.50;;;;;;;8.58;93.21;100242.58;1708850;83;20957;-61
2022/10/19 07:43:36;;;;;;;1.60;0.50;;;;;;;8.38;94.17;100247.05;1707117;83;21088;-61
2022/10/19 07:46:07;;;;;;;4.63;0.60;;;;;;;8.21;94.93;100256.20;1706518;82;20989;-61
2022/10/19 07:48:34;;;;;;;1.95;0.72;;;;;;;8.16;95.47;100254.17;1707234;83;20961;-61
2022/10/19 07:51:05;;;;;;;1.17;0.60;;;;;;;8.12;95.73;100248.64;1707212;82;21065;-61
2022/10/19 07:53:33;;;;;;;1.98;0.70;;;;;;;8.20;96.24;100253.63;1707275;83;20915;-61
2022/10/19 07:56:10;;;;;;;1.62;0.47;;;;;;;8.41;96.78;100256.09;1709813;82;21587;-61
2022/10/19 07:58:37;;;;;;;4.35;0.57;;;;;;;8.55;96.20;100259.13;1709101;83;26429;-61
2022/10/19 08:01:10;;;;;;;1.92;0.60;;;;;;;8.82;96.81;100256.56;1738491;81;21002;-61
2022/10/19 08:03:38;;;;;;;1.92;0.65;;;;;;;8.90;96.01;100259.78;1741593;80;22465;-61
2022/10/19 08:06:09;;;;;;;2.15;0.75;;;;;;;8.81;95.72;100263.52;1743669;80;24340;-61
2022/10/19 08:08:37;;;;;;;4.33;1.25;;;;;;;8.78;95.78;100264.08;1741854;81;20915;-62
2022/10/19 08:11:09;;;;;;;;;;;;;;;8.70;95.41;100276.88;1746424;81;21456;-62
2022/10/19 08:13:36;;;;;;;3.05;1.05;;;;;;;8.76;96.02;100268.48;1741388;81;20146;-61
2022/10/19 08:16:05;;;;;;;4.90;2.08;;;;;;;8.83;95.97;100266.09;1738815;81;21223;-62
2022/10/19 08:18:32;;;;;;;1.98;1.10;;;;;;;8.83;95.33;100276.52;1738004;81;21472;-61
2022/10/19 08:21:01;;;;;;;3.10;1.40;;;;;;;8.86;95.50;100271.20;1749436;81;20989;-61
2022/10/19 08:23:28;;;;;;;1.55;0.90;;;;;;;8.90;95.72;100272.80;1747365;81;22348;-61
2022/10/19 08:25:58;;;;;;;1.63;0.63;;;;;;;8.96;95.88;100272.59;1741945;81;20959;-62
2022/10/19 08:28:25;;;;;;;2.22;1.10;;;;;;;9.18;96.17;100284.03;1739112;81;20969;-61
2022/10/19 08:30:56;;;;;;;1.85;0.62;;;;;;;9.22;94.31;100287.87;1739037;81;20966;-61
2022/10/19 08:33:21;;;;;;;0.93;0.68;;;;;;;8.96;92.62;100290.83;1746095;81;20930;-61
2022/10/19 08:35:47;;;;;;;2.00;0.90;;;;;;;8.98;94.07;100286.44;1741196;81;20911;-61
2022/10/19 08:38:14;;;;;;;3.80;0.60;;;;;;;9.11;91.76;100292.97;1687714;84;21005;-61
2022/10/19 08:40:44;;;;;;;2.07;0.77;;;;;;;9.14;91.17;100296.77;1706698;82;21072;-61
2022/10/19 08:43:19;;;;;;;1.22;0.40;;;;;;;9.25;92.47;100289.07;1744728;81;21403;-61
2022/10/19 08:46:06;;;;;;;3.25;0.80;;;;;;;9.23;92.03;100290.86;1746903;81;20906;-61
2022/10/19 08:48:38;;;;;;;3.60;0.60;;;;;;;9.11;88.26;100291.66;1647615;85;22030;-62
2022/10/19 08:51:08;;;;;;;1.67;0.75;;;;;;;9.46;91.92;100292.25;1618666;85;21013;-62
2022/10/19 08:53:58;;;;;;;2.05;0.62;;;;;;;9.51;85.87;100292.95;1643015;85;21049;-61
2022/10/19 08:56:37;;;;;;;0.85;0.30;;;;;;;9.42;87.75;100308.91;1613954;87;21006;-62
2022/10/19 08:59:30;;;;;;;1.20;0.40;;;;;;;9.16;86.46;100304.55;1612905;88;20910;-62
2022/10/19 09:02:20;;;;;;;0.40;0.20;;;;;;;9.12;88.85;100311.59;1646188;86;21021;-61
2022/10/19 09:04:51;;;;;;;0.80;0.40;;;;;;;9.10;88.45;100321.23;1631208;85;21583;-61
2022/10/19 09:07:28;;;;;;;1.37;0.50;;;;;;;9.02;85.25;100310.20;1645483;86;20907;-61
2022/10/19 09:10:05;;;;;;;1.70;0.40;;;;;;;9.19;87.57;100309.20;1612506;87;21042;-61
2022/10/19 09:13:00;;;;;;;1.25;0.30;;;;;;;9.28;85.62;100333.27;1618410;87;20982;-61
2022/10/19 09:15:45;;;;;;;1.50;0.55;;;;;;;9.33;83.96;100333.97;1594735;88;21236;-61
2022/10/19 09:18:19;;;;;;;1.40;0.57;;;;;;;9.40;82.28;100335.46;1607969;87;21532;-62
2022/10/19 09:20:49;;;;;;;2.70;0.50;;;;;;;9.44;83.02;100336.20;1612531;87;21611;-60
2022/10/19 09:23:27;;;;;;;1.02;0.60;;;;;;;9.44;80.30;100347.51;1616227;87;20964;-61
2022/10/19 09:25:56;;;;;;;1.05;0.40;;;;;;;9.56;81.66;100339.27;1664777;82;21539;-63
2022/10/19 09:28:59;;;;;;;1.32;0.85;;;;;;;9.67;83.88;100332.86;1722042;81;21002;-63
2022/10/19 09:31:31;;;;;;;1.87;0.40;;;;;;;9.55;82.85;100353.22;1701727;82;21049;-62
2022/10/19 09:34:05;;;;;;;3.62;0.60;;;;;;;9.43;80.92;100350.16;1744652;81;21987;-62
2022/10/19 09:36:42;;;;;;;1.52;0.40;;;;;;;9.28;82.35;100365.84;1744032;81;20938;-63
2022/10/19 09:39:13;;;;;;;0.70;0.20;;;;;;;9.10;80.00;100364.64;1745979;80;21052;-61
2022/10/19 09:41:46;;;;;;;1.98;0.40;;;;;;;9.12;80.26;100375.42;1723024;81;20990;-61
2022/10/19 09:44:13;;;;;;;9.18;0.40;;;;;;;8.98;79.88;100368.94;1736476;81;21580;-62
2022/10/19 09:47:03;;;;;;;1.30;0.30;;;;;;;8.94;79.36;100363.82;1739924;81;21554;-60
2022/10/19 09:49:42;;;;;;;0.98;0.50;;;;;;;8.96;79.67;100384.59;1712084;82;21136;-61
2022/10/19 09:52:32;;;;;;;0.95;0.30;;;;;;;9.08;79.07;100384.24;1709081;82;21108;-61
2022/10/19 09:55:04;;;;;;;1.77;0.47;;;;;;;9.33;80.55;100382.19;1711692;82;21003;-61
2022/10/19 09:57:31;;;;;;;0.45;0.30;;;;;;;9.38;80.17;100389.38;1713631;82;21024;-62
2022/10/19 09:59:57;;;;;;;0.78;0.23;;;;;;;9.46;78.12;100387.39;1708923;82;22125;-61
2022/10/19 10:02:31;;;;;;;0.95;0.40;;;;;;;9.49;77.04;100400.32;1693379;82;21029;-61
2022/10/19 10:05:13;;;;;;;1.02;0.30;;;;;;;9.44;74.75;100398.34;1713316;82;21481;-61
2022/10/19 10:07:40;;;;;;;1.07;0.40;;;;;;;9.47;77.70;100399.54;1706265;82;21045;-61
2022/10/19 10:10:23;;;;;;;2.20;0.80;;;;;;;9.15;74.69;100406.59;1701896;82;21044;-60
2022/10/19 10:12:52;;;;;;;1.67;0.57;;;;;;;9.10;77.32;100405.90;1704013;82;21039;-61
2022/10/19 10:15:23;;;;;;;1.72;0.82;;;;;;;9.02;76.71;100411.78;1700150;82;21064;-61
2022/10/19 10:17:51;;;;;;;3.00;0.80;;;;;;;9.15;76.07;100413.09;1704381;82;21018;-61
2022/10/19 10:20:31;;;;;;;3.02;0.60;;;;;;;9.18;74.01;100409.09;1692999;82;20906;-61
2022/10/19 10:23:05;;;;;;;1.72;0.82;;;;;;;9.09;73.92;100422.41;1696018;83;21668;-61
2022/10/19 10:25:35;;;;;;;1.25;0.50;;;;;;;9.19;75.65;100426.45;1716076;82;21514;-61
2022/10/19 10:28:18;;;;;;;0.65;0.40;;;;;;;9.19;75.13;100434.27;1725120;82;20930;-61
2022/10/19 10:30:48;;;;;;;0.80;0.50;;;;;;;9.35;74.49;100428.58;1728561;81;21040;-61
2022/10/19 10:33:18;;;;;;;0.95;0.42;;;;;;;9.48;73.03;100427.30;1731584;81;21029;-61
2022/10/19 10:35:52;;;;;;;1.57;0.68;;;;;;;9.43;74.56;100435.70;1731366;81;20967;-62
2022/10/19 10:38:23;;;;;;;1.82;0.40;;;;;;;9.44;75.28;100436.13;1733980;81;21929;-61
2022/10/19 10:41:08;;;;;;;2.27;0.45;;;;;;;9.29;73.07;100431.38;1734831;81;20968;-61
2022/10/19 10:43:38;;;;;;;1.52;0.50;;;;;;;9.22;72.74;100431.17;1737132;81;21751;-61
2022/10/19 10:46:13;;;;;;;2.35;0.35;;;;;;;9.14;74.78;100422.28;1734099;81;21538;-61
2022/10/19 10:48:43;;;;;;;1.90;0.60;;;;;;;9.25;74.82;100425.88;1711246;82;21578;-61
2022/10/19 10:51:33;;;;;;;1.12;0.45;;;;;;;9.52;75.21;100413.28;1738985;81;21903;-61
2022/10/19 10:54:19;;;;;;;1.65;0.40;;;;;;;9.70;74.73;100426.63;1736943;81;21586;-61
2022/10/19 10:57:15;;;;;;;4.28;0.70;;;;;;;9.91;73.92;100444.16;1723798;82;21053;-61
2022/10/19 11:00:06;;;;;;;1.27;0.50;;;;;;;9.91;72.65;100436.33;1722075;82;20977;-61
2022/10/19 11:03:02;;;;;;;0.50;0.30;;;;;;;9.22;70.31;100448.11;1691877;83;21001;-61
2022/10/19 11:05:37;;;;;;;0.93;0.55;;;;;;;8.65;72.86;100447.97;1685140;83;21862;-60
2022/10/19 11:08:26;;;;;;;1.80;0.50;;;;;;;8.36;74.49;100441.39;1690422;84;20920;-60
2022/10/19 11:11:37;;;;;;;2.37;0.88;;;;;;;8.36;75.78;100453.09;1690745;84;20985;-61
2022/10/19 11:14:33;;;;;;;1.17;0.50;;;;;;;8.43;76.27;100439.92;1687907;84;20992;-61
2022/10/19 11:17:06;;;;;;;0.55;0.33;;;;;;;8.90;77.27;100434.27;1687728;84;21644;-61
2022/10/19 11:19:44;;;;;;;1.35;0.40;;;;;;;9.30;75.79;100427.86;1694358;84;21859;-60
2022/10/19 11:22:31;;;;;;;2.42;0.65;;;;;;;9.46;74.16;100426.95;1648059;85;20950;-61
2022/10/19 11:25:29;;;;;;;0.98;0.30;;;;;;;9.38;75.75;100437.59;1649633;85;20926;-61
2022/10/19 11:28:21;;;;;;;1.07;0.40;;;;;;;9.39;76.55;100427.59;1647580;85;20965;-62
2022/10/19 11:31:11;;;;;;;0.82;0.37;;;;;;;9.27;75.25;100440.98;1646779;85;21079;-60
2022/10/19 11:34:05;;;;;;;0.45;0.30;;;;;;;9.08;75.58;100451.98;1661336;84;21150;-62
2022/10/19 11:37:17;;;;;;;2.10;0.40;;;;;;;8.73;76.41;100466.84;1671342;84;20950;-63
2022/10/19 11:40:18;;;;;;;1.40;0.80;;;;;;;7.91;77.13;100478.08;1650949;84;21583;-61
2022/10/19 11:43:05;;;;;;;3.08;0.85;;;;;;;7.49;80.13;100476.89;1567781;90;21065;-62
2022/10/19 11:46:10;;;;;;;1.65;0.40;;;;;;;7.45;80.82;100467.44;1570168;90;20978;-62
2022/10/19 11:48:47;;;;;;;0.75;0.35;;;;;;;7.65;81.11;100457.47;1572026;90;21090;-62
2022/10/19 11:51:50;;;;;;;1.10;0.45;;;;;;;7.76;80.61;100465.86;1567521;90;21009;-62
2022/10/19 11:54:55;;;;;;;3.25;0.70;;;;;;;7.83;81.38;100464.81;1565074;90;20965;-62
2022/10/19 11:57:36;;;;;;;0.60;0.30;;;;;;;8.11;81.20;100461.53;1514952;93;21818;-62
2022/10/19 12:00:20;;;;;;;1.47;0.40;;;;;;;8.48;80.96;100454.09;1515446;93;21001;-62
2022/10/19 12:03:36;;;;;;;2.05;0.42;;;;;;;8.79;80.93;100451.95;1520490;92;21239;-61
2022/10/19 12:06:24;;;;;;;0.30;0.23;;;;;;;8.79;80.31;100458.00;1572521;90;21741;-62